Inicio METAR Ruta Wind Satelite

Informe Meteorológico

Fecha: 2020/12/01 19:25:00 Local
2020.12.02 00:25 UTC


Estado: VENCIDO
Operación:
Station name not available
2020.08.14 1400 UTC
Wind: from the NW (320 degrees) at 5 MPH (4 KT):0
Visibility: greater than 7 mile(s):0
Sky conditions: mostly cloudy
Temperature: 82 F (28 C)
Dew Point: 73 F (23 C)
Relative Humidity: 74%
Pressure (altimeter): 29.86 in. Hg (1011 hPa)
ob: SKSA 141400Z 32004KT 9999 SCT020 BKN060 28/23 A2986 RMK VCSH W
cycle: 14